sensor_id;sensor_type;location;lat;lon;timestamp;P1;durP1;ratioP1;P2;durP2;ratioP2
38238;SDS011;24035;48.900;9.188;2022-07-23T00:00:02;4.80;;;3.28;;
38238;SDS011;24035;48.900;9.188;2022-07-23T00:02:29;4.93;;;2.97;;
38238;SDS011;24035;48.900;9.188;2022-07-23T00:04:54;6.57;;;2.70;;
38238;SDS011;24035;48.900;9.188;2022-07-23T00:07:20;5.35;;;2.70;;
38238;SDS011;24035;48.900;9.188;2022-07-23T00:09:46;6.13;;;2.85;;
38238;SDS011;24035;48.900;9.188;2022-07-23T00:12:11;4.95;;;2.60;;
38238;SDS011;24035;48.900;9.188;2022-07-23T00:14:37;4.18;;;2.25;;
38238;SDS011;24035;48.900;9.188;2022-07-23T00:17:02;3.88;;;2.00;;
38238;SDS011;24035;48.900;9.188;2022-07-23T00:19:28;4.97;;;2.38;;
38238;SDS011;24035;48.900;9.188;2022-07-23T00:21:54;5.15;;;2.22;;
38238;SDS011;24035;48.900;9.188;2022-07-23T00:24:20;4.30;;;2.33;;
38238;SDS011;24035;48.900;9.188;2022-07-23T00:26:46;5.60;;;2.17;;
38238;SDS011;24035;48.900;9.188;2022-07-23T00:29:12;4.22;;;2.03;;
38238;SDS011;24035;48.900;9.188;2022-07-23T00:31:37;3.75;;;2.00;;
38238;SDS011;24035;48.900;9.188;2022-07-23T00:34:03;4.15;;;2.22;;
38238;SDS011;24035;48.900;9.188;2022-07-23T00:36:28;3.40;;;1.90;;
38238;SDS011;24035;48.900;9.188;2022-07-23T00:38:56;5.03;;;2.22;;
38238;SDS011;24035;48.900;9.188;2022-07-23T00:41:22;4.05;;;2.35;;
38238;SDS011;24035;48.900;9.188;2022-07-23T00:43:47;5.20;;;2.67;;
38238;SDS011;24035;48.900;9.188;2022-07-23T00:46:13;3.83;;;2.30;;
38238;SDS011;24035;48.900;9.188;2022-07-23T00:48:43;4.20;;;1.88;;
38238;SDS011;24035;48.900;9.188;2022-07-23T00:51:09;4.63;;;2.00;;
38238;SDS011;24035;48.900;9.188;2022-07-23T00:53:34;4.03;;;1.95;;
38238;SDS011;24035;48.900;9.188;2022-07-23T00:56:00;4.53;;;2.45;;
38238;SDS011;24035;48.900;9.188;2022-07-23T00:58:26;4.40;;;2.10;;
38238;SDS011;24035;48.900;9.188;2022-07-23T01:00:52;3.95;;;2.08;;
38238;SDS011;24035;48.900;9.188;2022-07-23T01:03:17;3.30;;;1.83;;
38238;SDS011;24035;48.900;9.188;2022-07-23T01:05:43;4.38;;;2.00;;
38238;SDS011;24035;48.900;9.188;2022-07-23T01:08:09;4.05;;;2.20;;
38238;SDS011;24035;48.900;9.188;2022-07-23T01:10:36;3.97;;;2.13;;
38238;SDS011;24035;48.900;9.188;2022-07-23T01:13:03;6.38;;;2.03;;
38238;SDS011;24035;48.900;9.188;2022-07-23T01:15:30;3.88;;;2.10;;
38238;SDS011;24035;48.900;9.188;2022-07-23T01:17:57;4.60;;;2.60;;
38238;SDS011;24035;48.900;9.188;2022-07-23T01:20:23;4.20;;;2.45;;
38238;SDS011;24035;48.900;9.188;2022-07-23T01:22:48;4.35;;;2.00;;
38238;SDS011;24035;48.900;9.188;2022-07-23T01:25:14;3.33;;;1.95;;
38238;SDS011;24035;48.900;9.188;2022-07-23T01:27:40;3.65;;;2.10;;
38238;SDS011;24035;48.900;9.188;2022-07-23T01:30:06;5.82;;;2.10;;
38238;SDS011;24035;48.900;9.188;2022-07-23T01:32:32;4.00;;;2.03;;
38238;SDS011;24035;48.900;9.188;2022-07-23T01:34:58;4.38;;;2.50;;
38238;SDS011;24035;48.900;9.188;2022-07-23T01:37:24;5.95;;;2.60;;
38238;SDS011;24035;48.900;9.188;2022-07-23T01:39:49;4.88;;;2.42;;
38238;SDS011;24035;48.900;9.188;2022-07-23T01:42:15;3.25;;;2.03;;
38238;SDS011;24035;48.900;9.188;2022-07-23T01:44:40;3.45;;;2.00;;
38238;SDS011;24035;48.900;9.188;2022-07-23T01:47:06;4.75;;;2.10;;
38238;SDS011;24035;48.900;9.188;2022-07-23T01:49:32;3.95;;;2.20;;
38238;SDS011;24035;48.900;9.188;2022-07-23T01:51:57;4.75;;;2.63;;
38238;SDS011;24035;48.900;9.188;2022-07-23T01:54:26;3.63;;;2.15;;
38238;SDS011;24035;48.900;9.188;2022-07-23T01:56:57;6.50;;;2.47;;
38238;SDS011;24035;48.900;9.188;2022-07-23T01:59:23;4.25;;;2.35;;
38238;SDS011;24035;48.900;9.188;2022-07-23T02:01:49;4.20;;;2.38;;
38238;SDS011;24035;48.900;9.188;2022-07-23T02:04:22;5.80;;;2.45;;
38238;SDS011;24035;48.900;9.188;2022-07-23T02:06:49;8.38;;;2.35;;
38238;SDS011;24035;48.900;9.188;2022-07-23T02:09:15;4.65;;;2.45;;
38238;SDS011;24035;48.900;9.188;2022-07-23T02:11:41;4.00;;;2.30;;
38238;SDS011;24035;48.900;9.188;2022-07-23T02:14:07;4.22;;;2.45;;
38238;SDS011;24035;48.900;9.188;2022-07-23T02:16:33;5.07;;;2.55;;
38238;SDS011;24035;48.900;9.188;2022-07-23T02:18:59;6.97;;;2.35;;
38238;SDS011;24035;48.900;9.188;2022-07-23T02:21:25;4.00;;;2.33;;
38238;SDS011;24035;48.900;9.188;2022-07-23T02:23:51;4.30;;;2.40;;
38238;SDS011;24035;48.900;9.188;2022-07-23T02:26:16;4.78;;;2.53;;
38238;SDS011;24035;48.900;9.188;2022-07-23T02:28:42;5.03;;;2.55;;
38238;SDS011;24035;48.900;9.188;2022-07-23T02:31:08;4.35;;;2.42;;
38238;SDS011;24035;48.900;9.188;2022-07-23T02:33:33;3.63;;;2.20;;
38238;SDS011;24035;48.900;9.188;2022-07-23T02:36:00;4.82;;;2.58;;
38238;SDS011;24035;48.900;9.188;2022-07-23T02:38:25;5.35;;;2.50;;
38238;SDS011;24035;48.900;9.188;2022-07-23T02:40:51;4.00;;;2.33;;
38238;SDS011;24035;48.900;9.188;2022-07-23T02:43:17;3.80;;;2.58;;
38238;SDS011;24035;48.900;9.188;2022-07-23T02:45:43;5.10;;;2.67;;
38238;SDS011;24035;48.900;9.188;2022-07-23T02:48:08;3.83;;;2.15;;
38238;SDS011;24035;48.900;9.188;2022-07-23T02:50:34;6.93;;;2.92;;
38238;SDS011;24035;48.900;9.188;2022-07-23T02:52:59;3.88;;;2.28;;
38238;SDS011;24035;48.900;9.188;2022-07-23T02:55:25;5.72;;;3.03;;
38238;SDS011;24035;48.900;9.188;2022-07-23T02:57:51;4.35;;;2.58;;
38238;SDS011;24035;48.900;9.188;2022-07-23T03:00:17;4.93;;;2.72;;
38238;SDS011;24035;48.900;9.188;2022-07-23T03:02:43;4.85;;;2.40;;
38238;SDS011;24035;48.900;9.188;2022-07-23T03:05:08;5.10;;;2.60;;
38238;SDS011;24035;48.900;9.188;2022-07-23T03:07:34;5.28;;;2.97;;
38238;SDS011;24035;48.900;9.188;2022-07-23T03:10:00;6.25;;;2.65;;
38238;SDS011;24035;48.900;9.188;2022-07-23T03:12:25;5.07;;;2.70;;
38238;SDS011;24035;48.900;9.188;2022-07-23T03:14:51;6.43;;;2.42;;
38238;SDS011;24035;48.900;9.188;2022-07-23T03:17:17;5.00;;;2.63;;
38238;SDS011;24035;48.900;9.188;2022-07-23T03:19:42;4.55;;;2.65;;
38238;SDS011;24035;48.900;9.188;2022-07-23T03:22:08;4.30;;;2.60;;
38238;SDS011;24035;48.900;9.188;2022-07-23T03:24:33;5.15;;;2.83;;
38238;SDS011;24035;48.900;9.188;2022-07-23T03:27:18;4.28;;;2.70;;
38238;SDS011;24035;48.900;9.188;2022-07-23T03:29:43;5.55;;;2.95;;
38238;SDS011;24035;48.900;9.188;2022-07-23T03:32:09;4.38;;;2.72;;
38238;SDS011;24035;48.900;9.188;2022-07-23T03:34:34;4.28;;;2.95;;
38238;SDS011;24035;48.900;9.188;2022-07-23T03:37:00;4.70;;;2.95;;
38238;SDS011;24035;48.900;9.188;2022-07-23T03:39:26;6.22;;;2.72;;
38238;SDS011;24035;48.900;9.188;2022-07-23T03:41:52;4.75;;;2.50;;
38238;SDS011;24035;48.900;9.188;2022-07-23T03:44:17;4.88;;;2.30;;
38238;SDS011;24035;48.900;9.188;2022-07-23T03:46:43;4.47;;;2.28;;
38238;SDS011;24035;48.900;9.188;2022-07-23T03:49:09;6.55;;;2.80;;
38238;SDS011;24035;48.900;9.188;2022-07-23T03:51:34;4.60;;;2.20;;
38238;SDS011;24035;48.900;9.188;2022-07-23T03:54:00;3.78;;;2.38;;
38238;SDS011;24035;48.900;9.188;2022-07-23T03:56:26;3.88;;;2.35;;
38238;SDS011;24035;48.900;9.188;2022-07-23T03:58:51;6.28;;;2.83;;
38238;SDS011;24035;48.900;9.188;2022-07-23T04:01:17;4.18;;;2.42;;
38238;SDS011;24035;48.900;9.188;2022-07-23T04:03:43;5.03;;;2.65;;
38238;SDS011;24035;48.900;9.188;2022-07-23T04:06:08;4.25;;;2.30;;
38238;SDS011;24035;48.900;9.188;2022-07-23T04:08:34;4.22;;;2.13;;
38238;SDS011;24035;48.900;9.188;2022-07-23T04:10:59;4.72;;;2.28;;
38238;SDS011;24035;48.900;9.188;2022-07-23T04:13:25;5.00;;;2.80;;
38238;SDS011;24035;48.900;9.188;2022-07-23T04:15:51;4.25;;;2.28;;
38238;SDS011;24035;48.900;9.188;2022-07-23T04:18:17;4.55;;;2.33;;
38238;SDS011;24035;48.900;9.188;2022-07-23T04:20:43;4.63;;;2.53;;
38238;SDS011;24035;48.900;9.188;2022-07-23T04:23:09;4.38;;;2.17;;
38238;SDS011;24035;48.900;9.188;2022-07-23T04:25:35;8.73;;;3.42;;
38238;SDS011;24035;48.900;9.188;2022-07-23T04:28:01;6.22;;;3.00;;
38238;SDS011;24035;48.900;9.188;2022-07-23T04:30:26;5.78;;;2.58;;
38238;SDS011;24035;48.900;9.188;2022-07-23T04:32:52;4.80;;;2.55;;
38238;SDS011;24035;48.900;9.188;2022-07-23T04:35:18;4.25;;;2.50;;
38238;SDS011;24035;48.900;9.188;2022-07-23T04:37:44;5.28;;;2.55;;
38238;SDS011;24035;48.900;9.188;2022-07-23T04:40:10;4.00;;;2.45;;
38238;SDS011;24035;48.900;9.188;2022-07-23T04:42:36;4.68;;;2.58;;
38238;SDS011;24035;48.900;9.188;2022-07-23T04:45:02;5.20;;;2.80;;
38238;SDS011;24035;48.900;9.188;2022-07-23T04:47:29;7.28;;;2.90;;
38238;SDS011;24035;48.900;9.188;2022-07-23T04:49:55;5.38;;;2.80;;
38238;SDS011;24035;48.900;9.188;2022-07-23T04:52:21;3.83;;;2.25;;
38238;SDS011;24035;48.900;9.188;2022-07-23T04:54:47;4.03;;;2.40;;
38238;SDS011;24035;48.900;9.188;2022-07-23T04:57:13;8.02;;;2.38;;
38238;SDS011;24035;48.900;9.188;2022-07-23T04:59:38;3.92;;;2.35;;
38238;SDS011;24035;48.900;9.188;2022-07-23T05:02:04;6.60;;;2.65;;
38238;SDS011;24035;48.900;9.188;2022-07-23T05:04:30;4.03;;;2.10;;
38238;SDS011;24035;48.900;9.188;2022-07-23T05:06:56;5.13;;;2.85;;
38238;SDS011;24035;48.900;9.188;2022-07-23T05:09:22;3.85;;;2.30;;
38238;SDS011;24035;48.900;9.188;2022-07-23T05:11:48;4.35;;;2.50;;
38238;SDS011;24035;48.900;9.188;2022-07-23T05:14:14;4.30;;;2.40;;
38238;SDS011;24035;48.900;9.188;2022-07-23T05:16:40;4.65;;;2.65;;
38238;SDS011;24035;48.900;9.188;2022-07-23T05:19:05;4.07;;;2.60;;
38238;SDS011;24035;48.900;9.188;2022-07-23T05:21:31;4.78;;;2.53;;
38238;SDS011;24035;48.900;9.188;2022-07-23T05:23:57;3.63;;;2.22;;
38238;SDS011;24035;48.900;9.188;2022-07-23T05:26:22;4.22;;;2.40;;
38238;SDS011;24035;48.900;9.188;2022-07-23T05:28:49;4.68;;;2.35;;
38238;SDS011;24035;48.900;9.188;2022-07-23T05:31:15;3.92;;;2.30;;
38238;SDS011;24035;48.900;9.188;2022-07-23T05:33:40;3.90;;;2.22;;
38238;SDS011;24035;48.900;9.188;2022-07-23T05:36:06;4.05;;;2.35;;
38238;SDS011;24035;48.900;9.188;2022-07-23T05:38:32;5.18;;;2.20;;
38238;SDS011;24035;48.900;9.188;2022-07-23T05:40:58;4.15;;;2.47;;
38238;SDS011;24035;48.900;9.188;2022-07-23T05:43:24;4.70;;;2.63;;
38238;SDS011;24035;48.900;9.188;2022-07-23T05:45:50;4.65;;;2.70;;
38238;SDS011;24035;48.900;9.188;2022-07-23T05:48:16;4.68;;;2.63;;
38238;SDS011;24035;48.900;9.188;2022-07-23T05:50:41;5.60;;;2.42;;
38238;SDS011;24035;48.900;9.188;2022-07-23T05:53:07;3.83;;;2.53;;
38238;SDS011;24035;48.900;9.188;2022-07-23T05:55:33;4.78;;;2.72;;
38238;SDS011;24035;48.900;9.188;2022-07-23T05:57:59;4.93;;;2.80;;
38238;SDS011;24035;48.900;9.188;2022-07-23T06:00:25;4.88;;;2.47;;
38238;SDS011;24035;48.900;9.188;2022-07-23T06:02:52;4.53;;;2.75;;
38238;SDS011;24035;48.900;9.188;2022-07-23T06:05:17;5.70;;;3.42;;
38238;SDS011;24035;48.900;9.188;2022-07-23T06:07:43;6.35;;;2.83;;
38238;SDS011;24035;48.900;9.188;2022-07-23T06:10:09;5.28;;;2.83;;
38238;SDS011;24035;48.900;9.188;2022-07-23T06:12:35;5.53;;;2.78;;
38238;SDS011;24035;48.900;9.188;2022-07-23T06:15:01;4.50;;;2.85;;
38238;SDS011;24035;48.900;9.188;2022-07-23T06:17:27;5.97;;;2.67;;
38238;SDS011;24035;48.900;9.188;2022-07-23T06:19:54;4.68;;;2.45;;
38238;SDS011;24035;48.900;9.188;2022-07-23T06:22:20;5.00;;;3.13;;
38238;SDS011;24035;48.900;9.188;2022-07-23T06:24:46;5.15;;;3.17;;
38238;SDS011;24035;48.900;9.188;2022-07-23T06:27:12;4.35;;;2.63;;
38238;SDS011;24035;48.900;9.188;2022-07-23T06:29:38;6.00;;;3.28;;
38238;SDS011;24035;48.900;9.188;2022-07-23T06:32:05;5.47;;;3.22;;
38238;SDS011;24035;48.900;9.188;2022-07-23T06:34:32;5.30;;;3.13;;
38238;SDS011;24035;48.900;9.188;2022-07-23T06:36:58;4.80;;;2.70;;
38238;SDS011;24035;48.900;9.188;2022-07-23T06:39:24;4.45;;;3.08;;
38238;SDS011;24035;48.900;9.188;2022-07-23T06:41:49;6.47;;;3.53;;
38238;SDS011;24035;48.900;9.188;2022-07-23T06:44:15;5.68;;;3.00;;
38238;SDS011;24035;48.900;9.188;2022-07-23T06:46:41;6.90;;;3.15;;
38238;SDS011;24035;48.900;9.188;2022-07-23T06:49:06;5.03;;;3.13;;
38238;SDS011;24035;48.900;9.188;2022-07-23T06:51:32;7.20;;;3.33;;
38238;SDS011;24035;48.900;9.188;2022-07-23T06:53:58;6.65;;;3.45;;
38238;SDS011;24035;48.900;9.188;2022-07-23T06:56:24;4.53;;;2.90;;
38238;SDS011;24035;48.900;9.188;2022-07-23T06:58:50;6.10;;;3.35;;
38238;SDS011;24035;48.900;9.188;2022-07-23T07:01:15;6.30;;;2.70;;
38238;SDS011;24035;48.900;9.188;2022-07-23T07:03:41;5.97;;;3.28;;
38238;SDS011;24035;48.900;9.188;2022-07-23T07:06:07;5.25;;;3.00;;
38238;SDS011;24035;48.900;9.188;2022-07-23T07:08:33;5.30;;;3.10;;
38238;SDS011;24035;48.900;9.188;2022-07-23T07:10:58;5.03;;;3.35;;
38238;SDS011;24035;48.900;9.188;2022-07-23T07:13:24;5.38;;;3.33;;
38238;SDS011;24035;48.900;9.188;2022-07-23T07:15:50;5.07;;;3.08;;
38238;SDS011;24035;48.900;9.188;2022-07-23T07:18:16;5.32;;;2.90;;
38238;SDS011;24035;48.900;9.188;2022-07-23T07:20:41;5.75;;;3.30;;
38238;SDS011;24035;48.900;9.188;2022-07-23T07:23:07;7.05;;;3.67;;
38238;SDS011;24035;48.900;9.188;2022-07-23T07:25:33;5.97;;;3.58;;
38238;SDS011;24035;48.900;9.188;2022-07-23T07:27:59;6.85;;;3.60;;
38238;SDS011;24035;48.900;9.188;2022-07-23T07:30:25;8.05;;;4.15;;
38238;SDS011;24035;48.900;9.188;2022-07-23T07:32:50;6.18;;;3.47;;
38238;SDS011;24035;48.900;9.188;2022-07-23T07:35:16;6.07;;;3.78;;
38238;SDS011;24035;48.900;9.188;2022-07-23T07:37:41;6.35;;;3.83;;
38238;SDS011;24035;48.900;9.188;2022-07-23T07:40:07;7.03;;;3.80;;
38238;SDS011;24035;48.900;9.188;2022-07-23T07:42:33;5.65;;;4.13;;
38238;SDS011;24035;48.900;9.188;2022-07-23T07:44:59;8.68;;;4.78;;
38238;SDS011;24035;48.900;9.188;2022-07-23T07:47:25;5.57;;;3.70;;
38238;SDS011;24035;48.900;9.188;2022-07-23T07:49:51;7.22;;;3.88;;
38238;SDS011;24035;48.900;9.188;2022-07-23T07:52:16;6.55;;;3.97;;
38238;SDS011;24035;48.900;9.188;2022-07-23T07:54:42;6.90;;;4.38;;
38238;SDS011;24035;48.900;9.188;2022-07-23T07:57:08;5.50;;;3.65;;
38238;SDS011;24035;48.900;9.188;2022-07-23T07:59:34;6.57;;;3.92;;
38238;SDS011;24035;48.900;9.188;2022-07-23T08:02:00;8.52;;;3.97;;
38238;SDS011;24035;48.900;9.188;2022-07-23T08:04:27;7.93;;;3.78;;
38238;SDS011;24035;48.900;9.188;2022-07-23T08:06:52;5.75;;;3.33;;
38238;SDS011;24035;48.900;9.188;2022-07-23T08:09:18;5.43;;;3.10;;
38238;SDS011;24035;48.900;9.188;2022-07-23T08:11:43;5.55;;;3.47;;
38238;SDS011;24035;48.900;9.188;2022-07-23T08:14:09;5.18;;;3.10;;
38238;SDS011;24035;48.900;9.188;2022-07-23T08:16:36;6.47;;;3.22;;
38238;SDS011;24035;48.900;9.188;2022-07-23T08:19:02;6.35;;;3.25;;
38238;SDS011;24035;48.900;9.188;2022-07-23T08:21:27;5.22;;;3.22;;
38238;SDS011;24035;48.900;9.188;2022-07-23T08:23:53;5.97;;;3.45;;
38238;SDS011;24035;48.900;9.188;2022-07-23T08:26:18;5.00;;;3.58;;
38238;SDS011;24035;48.900;9.188;2022-07-23T08:28:44;6.45;;;3.15;;
38238;SDS011;24035;48.900;9.188;2022-07-23T08:31:10;7.78;;;3.33;;
38238;SDS011;24035;48.900;9.188;2022-07-23T08:33:36;7.38;;;3.70;;
38238;SDS011;24035;48.900;9.188;2022-07-23T08:36:03;4.68;;;3.00;;
38238;SDS011;24035;48.900;9.188;2022-07-23T08:38:29;6.55;;;3.83;;
38238;SDS011;24035;48.900;9.188;2022-07-23T08:40:55;6.22;;;2.90;;
38238;SDS011;24035;48.900;9.188;2022-07-23T08:43:25;4.45;;;2.80;;
38238;SDS011;24035;48.900;9.188;2022-07-23T08:45:53;4.72;;;2.88;;
38238;SDS011;24035;48.900;9.188;2022-07-23T08:48:27;4.05;;;2.42;;
38238;SDS011;24035;48.900;9.188;2022-07-23T08:50:55;6.05;;;2.83;;
38238;SDS011;24035;48.900;9.188;2022-07-23T08:53:23;4.47;;;3.05;;
38238;SDS011;24035;48.900;9.188;2022-07-23T08:55:51;5.13;;;3.10;;
38238;SDS011;24035;48.900;9.188;2022-07-23T08:58:19;5.43;;;2.83;;
38238;SDS011;24035;48.900;9.188;2022-07-23T09:00:45;6.63;;;2.97;;
38238;SDS011;24035;48.900;9.188;2022-07-23T09:03:15;5.72;;;3.33;;
38238;SDS011;24035;48.900;9.188;2022-07-23T09:05:42;4.88;;;2.65;;
38238;SDS011;24035;48.900;9.188;2022-07-23T09:08:21;4.55;;;3.15;;
38238;SDS011;24035;48.900;9.188;2022-07-23T09:10:57;5.45;;;2.90;;
38238;SDS011;24035;48.900;9.188;2022-07-23T09:13:26;5.45;;;2.70;;
38238;SDS011;24035;48.900;9.188;2022-07-23T09:15:53;5.25;;;2.70;;
38238;SDS011;24035;48.900;9.188;2022-07-23T09:21:07;5.55;;;2.75;;
38238;SDS011;24035;48.900;9.188;2022-07-23T09:24:03;4.05;;;2.33;;
38238;SDS011;24035;48.900;9.188;2022-07-23T09:29:11;4.00;;;2.47;;
38238;SDS011;24035;48.900;9.188;2022-07-23T09:31:47;4.13;;;2.50;;
38238;SDS011;24035;48.900;9.188;2022-07-23T09:34:33;4.45;;;2.47;;
38238;SDS011;24035;48.900;9.188;2022-07-23T09:37:13;4.35;;;2.80;;
38238;SDS011;24035;48.900;9.188;2022-07-23T09:39:44;4.95;;;2.60;;
38238;SDS011;24035;48.900;9.188;2022-07-23T09:44:49;4.65;;;3.05;;
38238;SDS011;24035;48.900;9.188;2022-07-23T09:47:20;4.82;;;2.55;;
38238;SDS011;24035;48.900;9.188;2022-07-23T09:52:42;3.97;;;2.58;;
38238;SDS011;24035;48.900;9.188;2022-07-23T09:55:09;6.18;;;2.83;;
38238;SDS011;24035;48.900;9.188;2022-07-23T09:57:36;4.80;;;2.65;;
38238;SDS011;24035;48.900;9.188;2022-07-23T10:00:03;4.75;;;2.85;;
38238;SDS011;24035;48.900;9.188;2022-07-23T10:02:33;7.72;;;3.08;;
38238;SDS011;24035;48.900;9.188;2022-07-23T10:05:00;4.93;;;3.22;;
38238;SDS011;24035;48.900;9.188;2022-07-23T10:07:27;5.68;;;3.20;;
38238;SDS011;24035;48.900;9.188;2022-07-23T10:09:56;4.97;;;3.13;;
38238;SDS011;24035;48.900;9.188;2022-07-23T10:12:23;5.32;;;3.13;;
38238;SDS011;24035;48.900;9.188;2022-07-23T10:15:03;6.22;;;3.30;;
38238;SDS011;24035;48.900;9.188;2022-07-23T10:17:31;4.25;;;3.00;;
38238;SDS011;24035;48.900;9.188;2022-07-23T10:19:57;4.20;;;2.95;;
38238;SDS011;24035;48.900;9.188;2022-07-23T10:22:27;4.78;;;3.33;;
38238;SDS011;24035;48.900;9.188;2022-07-23T10:27:49;5.70;;;3.08;;
38238;SDS011;24035;48.900;9.188;2022-07-23T10:30:47;4.57;;;2.67;;
38238;SDS011;24035;48.900;9.188;2022-07-23T10:36:15;4.97;;;2.83;;
38238;SDS011;24035;48.900;9.188;2022-07-23T10:41:34;4.38;;;2.75;;
38238;SDS011;24035;48.900;9.188;2022-07-23T10:49:34;6.15;;;2.58;;
38238;SDS011;24035;48.900;9.188;2022-07-23T10:54:50;7.00;;;2.90;;
38238;SDS011;24035;48.900;9.188;2022-07-23T10:57:21;3.70;;;2.38;;
38238;SDS011;24035;48.900;9.188;2022-07-23T11:02:39;4.20;;;2.30;;
38238;SDS011;24035;48.900;9.188;2022-07-23T11:05:25;4.85;;;2.78;;
38238;SDS011;24035;48.900;9.188;2022-07-23T11:24:04;4.05;;;2.50;;
38238;SDS011;24035;48.900;9.188;2022-07-23T11:34:47;4.40;;;2.67;;
38238;SDS011;24035;48.900;9.188;2022-07-23T11:40:19;4.80;;;2.53;;
38238;SDS011;24035;48.900;9.188;2022-07-23T11:42:52;4.15;;;2.30;;
38238;SDS011;24035;48.900;9.188;2022-07-23T11:45:47;4.90;;;3.00;;
38238;SDS011;24035;48.900;9.188;2022-07-23T11:48:23;3.75;;;2.47;;
38238;SDS011;24035;48.900;9.188;2022-07-23T11:50:51;4.50;;;2.58;;
38238;SDS011;24035;48.900;9.188;2022-07-23T11:53:21;4.03;;;2.53;;
38238;SDS011;24035;48.900;9.188;2022-07-23T11:55:52;6.15;;;2.83;;
38238;SDS011;24035;48.900;9.188;2022-07-23T11:58:18;4.30;;;2.60;;
38238;SDS011;24035;48.900;9.188;2022-07-23T12:00:44;5.03;;;2.80;;
38238;SDS011;24035;48.900;9.188;2022-07-23T12:03:09;4.25;;;2.40;;
38238;SDS011;24035;48.900;9.188;2022-07-23T12:05:36;6.65;;;3.25;;
38238;SDS011;24035;48.900;9.188;2022-07-23T12:08:03;4.60;;;2.85;;
38238;SDS011;24035;48.900;9.188;2022-07-23T12:13:10;5.05;;;2.72;;
38238;SDS011;24035;48.900;9.188;2022-07-23T12:15:48;4.40;;;2.60;;
38238;SDS011;24035;48.900;9.188;2022-07-23T12:18:16;5.30;;;2.83;;
38238;SDS011;24035;48.900;9.188;2022-07-23T12:20:46;6.03;;;2.90;;
38238;SDS011;24035;48.900;9.188;2022-07-23T12:23:15;5.20;;;3.13;;
38238;SDS011;24035;48.900;9.188;2022-07-23T12:25:43;5.85;;;3.47;;
38238;SDS011;24035;48.900;9.188;2022-07-23T12:28:14;5.68;;;3.05;;
38238;SDS011;24035;48.900;9.188;2022-07-23T12:30:44;6.75;;;3.42;;
38238;SDS011;24035;48.900;9.188;2022-07-23T12:33:33;5.45;;;3.55;;
38238;SDS011;24035;48.900;9.188;2022-07-23T12:36:09;5.28;;;3.20;;
38238;SDS011;24035;48.900;9.188;2022-07-23T12:38:37;5.93;;;3.47;;
38238;SDS011;24035;48.900;9.188;2022-07-23T12:41:05;4.53;;;3.03;;
38238;SDS011;24035;48.900;9.188;2022-07-23T12:43:38;4.90;;;3.42;;
38238;SDS011;24035;48.900;9.188;2022-07-23T12:46:06;4.28;;;2.80;;
38238;SDS011;24035;48.900;9.188;2022-07-23T12:48:37;5.03;;;3.40;;
38238;SDS011;24035;48.900;9.188;2022-07-23T12:51:08;5.93;;;3.17;;
38238;SDS011;24035;48.900;9.188;2022-07-23T12:53:44;5.65;;;3.35;;
38238;SDS011;24035;48.900;9.188;2022-07-23T12:56:16;6.35;;;3.53;;
38238;SDS011;24035;48.900;9.188;2022-07-23T13:06:31;5.70;;;3.25;;
38238;SDS011;24035;48.900;9.188;2022-07-23T13:08:59;4.78;;;3.00;;
38238;SDS011;24035;48.900;9.188;2022-07-23T13:11:25;10.30;;;4.25;;
38238;SDS011;24035;48.900;9.188;2022-07-23T13:13:51;5.20;;;3.45;;
38238;SDS011;24035;48.900;9.188;2022-07-23T13:16:18;9.05;;;3.45;;
38238;SDS011;24035;48.900;9.188;2022-07-23T13:18:44;6.07;;;3.72;;
38238;SDS011;24035;48.900;9.188;2022-07-23T13:21:10;4.63;;;3.42;;
38238;SDS011;24035;48.900;9.188;2022-07-23T13:23:36;5.47;;;3.50;;
38238;SDS011;24035;48.900;9.188;2022-07-23T13:26:02;5.68;;;3.38;;
38238;SDS011;24035;48.900;9.188;2022-07-23T13:28:28;5.65;;;3.55;;
38238;SDS011;24035;48.900;9.188;2022-07-23T13:30:54;5.57;;;3.60;;
38238;SDS011;24035;48.900;9.188;2022-07-23T13:33:21;7.22;;;3.92;;
38238;SDS011;24035;48.900;9.188;2022-07-23T13:35:48;4.78;;;3.53;;
38238;SDS011;24035;48.900;9.188;2022-07-23T13:38:15;5.68;;;3.75;;
38238;SDS011;24035;48.900;9.188;2022-07-23T13:40:42;6.15;;;3.95;;
38238;SDS011;24035;48.900;9.188;2022-07-23T13:43:10;7.82;;;3.60;;
38238;SDS011;24035;48.900;9.188;2022-07-23T13:45:37;5.32;;;3.63;;
38238;SDS011;24035;48.900;9.188;2022-07-23T13:48:04;4.70;;;3.20;;
38238;SDS011;24035;48.900;9.188;2022-07-23T13:50:31;4.43;;;2.95;;
38238;SDS011;24035;48.900;9.188;2022-07-23T13:52:59;6.82;;;3.85;;
38238;SDS011;24035;48.900;9.188;2022-07-23T13:55:36;4.72;;;3.70;;
38238;SDS011;24035;48.900;9.188;2022-07-23T13:58:02;4.32;;;3.13;;
38238;SDS011;24035;48.900;9.188;2022-07-23T14:00:29;5.60;;;3.35;;
38238;SDS011;24035;48.900;9.188;2022-07-23T14:02:57;4.53;;;3.00;;
38238;SDS011;24035;48.900;9.188;2022-07-23T14:05:23;5.22;;;3.25;;
38238;SDS011;24035;48.900;9.188;2022-07-23T14:07:48;4.70;;;3.13;;
38238;SDS011;24035;48.900;9.188;2022-07-23T14:10:15;5.88;;;3.00;;
38238;SDS011;24035;48.900;9.188;2022-07-23T14:12:42;5.03;;;3.60;;
38238;SDS011;24035;48.900;9.188;2022-07-23T14:15:08;5.32;;;3.35;;
38238;SDS011;24035;48.900;9.188;2022-07-23T14:17:39;5.65;;;3.25;;
38238;SDS011;24035;48.900;9.188;2022-07-23T14:20:06;4.72;;;3.00;;
38238;SDS011;24035;48.900;9.188;2022-07-23T14:22:32;6.47;;;3.13;;
38238;SDS011;24035;48.900;9.188;2022-07-23T14:24:58;5.18;;;3.72;;
38238;SDS011;24035;48.900;9.188;2022-07-23T14:27:25;5.13;;;3.20;;
38238;SDS011;24035;48.900;9.188;2022-07-23T14:29:52;5.53;;;3.38;;
38238;SDS011;24035;48.900;9.188;2022-07-23T14:32:18;4.35;;;2.80;;
38238;SDS011;24035;48.900;9.188;2022-07-23T14:34:44;5.97;;;3.67;;
38238;SDS011;24035;48.900;9.188;2022-07-23T14:37:10;5.53;;;3.35;;
38238;SDS011;24035;48.900;9.188;2022-07-23T14:39:37;5.63;;;3.33;;
38238;SDS011;24035;48.900;9.188;2022-07-23T14:42:03;7.00;;;3.67;;
38238;SDS011;24035;48.900;9.188;2022-07-23T14:44:29;6.90;;;3.65;;
38238;SDS011;24035;48.900;9.188;2022-07-23T14:46:55;5.15;;;3.60;;
38238;SDS011;24035;48.900;9.188;2022-07-23T14:49:21;6.32;;;3.45;;
38238;SDS011;24035;48.900;9.188;2022-07-23T14:51:46;5.10;;;3.40;;
38238;SDS011;24035;48.900;9.188;2022-07-23T14:54:12;5.03;;;3.38;;
38238;SDS011;24035;48.900;9.188;2022-07-23T14:56:39;5.97;;;3.22;;
38238;SDS011;24035;48.900;9.188;2022-07-23T14:59:06;6.07;;;3.95;;
38238;SDS011;24035;48.900;9.188;2022-07-23T15:01:32;5.00;;;3.50;;
38238;SDS011;24035;48.900;9.188;2022-07-23T15:03:58;6.45;;;3.58;;
38238;SDS011;24035;48.900;9.188;2022-07-23T15:06:24;6.32;;;3.72;;
38238;SDS011;24035;48.900;9.188;2022-07-23T15:08:49;6.82;;;3.78;;
38238;SDS011;24035;48.900;9.188;2022-07-23T15:11:16;4.88;;;3.67;;
38238;SDS011;24035;48.900;9.188;2022-07-23T15:13:41;4.70;;;3.50;;
38238;SDS011;24035;48.900;9.188;2022-07-23T15:16:07;5.35;;;3.60;;
38238;SDS011;24035;48.900;9.188;2022-07-23T15:18:33;6.07;;;3.85;;
38238;SDS011;24035;48.900;9.188;2022-07-23T15:20:59;5.90;;;3.67;;
38238;SDS011;24035;48.900;9.188;2022-07-23T15:23:26;6.45;;;4.22;;
38238;SDS011;24035;48.900;9.188;2022-07-23T15:25:53;4.85;;;3.45;;
38238;SDS011;24035;48.900;9.188;2022-07-23T15:28:22;5.25;;;3.83;;
38238;SDS011;24035;48.900;9.188;2022-07-23T15:30:51;5.72;;;3.80;;
38238;SDS011;24035;48.900;9.188;2022-07-23T15:33:17;5.70;;;3.60;;
38238;SDS011;24035;48.900;9.188;2022-07-23T15:35:43;5.30;;;3.40;;
38238;SDS011;24035;48.900;9.188;2022-07-23T15:38:09;5.95;;;3.72;;
38238;SDS011;24035;48.900;9.188;2022-07-23T15:40:35;4.55;;;3.15;;
38238;SDS011;24035;48.900;9.188;2022-07-23T15:43:01;5.82;;;3.47;;
38238;SDS011;24035;48.900;9.188;2022-07-23T15:45:26;5.75;;;3.72;;
38238;SDS011;24035;48.900;9.188;2022-07-23T15:47:52;5.10;;;3.78;;
38238;SDS011;24035;48.900;9.188;2022-07-23T15:50:19;5.95;;;3.78;;
38238;SDS011;24035;48.900;9.188;2022-07-23T15:52:45;6.80;;;3.25;;
38238;SDS011;24035;48.900;9.188;2022-07-23T15:55:10;4.57;;;3.40;;